sensor_id;sensor_type;location;lat;lon;timestamp;temperature;humidity
42479;DHT22;28110;47.080;9.476;2023-04-16T00:00:38;6.60;99.90
42479;DHT22;28110;47.080;9.476;2023-04-16T00:03:03;6.70;99.90
42479;DHT22;28110;47.080;9.476;2023-04-16T00:05:29;6.70;99.90
42479;DHT22;28110;47.080;9.476;2023-04-16T00:07:54;6.70;99.90
42479;DHT22;28110;47.080;9.476;2023-04-16T00:10:20;6.70;99.90
42479;DHT22;28110;47.080;9.476;2023-04-16T00:12:45;6.70;99.90
42479;DHT22;28110;47.080;9.476;2023-04-16T00:15:11;6.70;99.90
42479;DHT22;28110;47.080;9.476;2023-04-16T00:17:36;6.60;99.90
42479;DHT22;28110;47.080;9.476;2023-04-16T00:20:02;6.70;99.90
42479;DHT22;28110;47.080;9.476;2023-04-16T00:22:28;6.70;99.90
42479;DHT22;28110;47.080;9.476;2023-04-16T00:24:53;6.70;99.90
42479;DHT22;28110;47.080;9.476;2023-04-16T00:27:19;6.70;99.90
42479;DHT22;28110;47.080;9.476;2023-04-16T00:29:44;6.70;99.90
42479;DHT22;28110;47.080;9.476;2023-04-16T00:32:10;6.60;99.90
42479;DHT22;28110;47.080;9.476;2023-04-16T00:34:35;6.60;99.90
42479;DHT22;28110;47.080;9.476;2023-04-16T00:37:01;6.60;99.90
42479;DHT22;28110;47.080;9.476;2023-04-16T00:39:26;6.60;99.90
42479;DHT22;28110;47.080;9.476;2023-04-16T00:41:52;6.60;99.90
42479;DHT22;28110;47.080;9.476;2023-04-16T00:44:17;6.50;99.90
42479;DHT22;28110;47.080;9.476;2023-04-16T00:46:44;6.50;99.90
42479;DHT22;28110;47.080;9.476;2023-04-16T00:49:11;6.50;99.90
42479;DHT22;28110;47.080;9.476;2023-04-16T00:51:36;6.40;99.90
42479;DHT22;28110;47.080;9.476;2023-04-16T00:54:02;6.40;99.90
42479;DHT22;28110;47.080;9.476;2023-04-16T00:56:29;6.50;99.90
42479;DHT22;28110;47.080;9.476;2023-04-16T00:58:55;6.50;99.90
42479;DHT22;28110;47.080;9.476;2023-04-16T01:01:21;6.50;99.90
42479;DHT22;28110;47.080;9.476;2023-04-16T01:03:47;6.50;99.90
42479;DHT22;28110;47.080;9.476;2023-04-16T01:06:15;6.50;99.90
42479;DHT22;28110;47.080;9.476;2023-04-16T01:08:42;6.50;99.90
42479;DHT22;28110;47.080;9.476;2023-04-16T01:11:09;6.50;99.90
42479;DHT22;28110;47.080;9.476;2023-04-16T01:13:35;6.50;99.90
42479;DHT22;28110;47.080;9.476;2023-04-16T01:16:05;6.50;99.90
42479;DHT22;28110;47.080;9.476;2023-04-16T01:18:31;6.60;99.90
42479;DHT22;28110;47.080;9.476;2023-04-16T01:20:56;6.50;99.90
42479;DHT22;28110;47.080;9.476;2023-04-16T01:23:22;6.50;99.90
42479;DHT22;28110;47.080;9.476;2023-04-16T01:25:47;6.50;99.90
42479;DHT22;28110;47.080;9.476;2023-04-16T01:28:13;6.50;99.90
42479;DHT22;28110;47.080;9.476;2023-04-16T01:30:38;6.50;99.90
42479;DHT22;28110;47.080;9.476;2023-04-16T01:33:04;6.50;99.90
42479;DHT22;28110;47.080;9.476;2023-04-16T01:35:31;6.50;99.90
42479;DHT22;28110;47.080;9.476;2023-04-16T01:37:56;6.50;99.90
42479;DHT22;28110;47.080;9.476;2023-04-16T01:40:22;6.50;99.90
42479;DHT22;28110;47.080;9.476;2023-04-16T01:42:47;6.50;99.90
42479;DHT22;28110;47.080;9.476;2023-04-16T01:45:13;6.50;99.90
42479;DHT22;28110;47.080;9.476;2023-04-16T01:47:39;6.50;99.90
42479;DHT22;28110;47.080;9.476;2023-04-16T01:50:05;6.50;99.90
42479;DHT22;28110;47.080;9.476;2023-04-16T01:52:31;6.50;99.90
42479;DHT22;28110;47.080;9.476;2023-04-16T01:54:56;6.50;99.90
42479;DHT22;28110;47.080;9.476;2023-04-16T01:57:22;6.40;99.90
42479;DHT22;28110;47.080;9.476;2023-04-16T01:59:47;6.40;99.90
42479;DHT22;28110;47.080;9.476;2023-04-16T02:02:14;6.30;99.90
42479;DHT22;28110;47.080;9.476;2023-04-16T02:04:42;6.30;99.90
42479;DHT22;28110;47.080;9.476;2023-04-16T02:07:10;6.30;99.90
42479;DHT22;28110;47.080;9.476;2023-04-16T02:09:36;6.20;99.90
42479;DHT22;28110;47.080;9.476;2023-04-16T02:12:03;6.20;99.90
42479;DHT22;28110;47.080;9.476;2023-04-16T02:14:29;6.20;99.90
42479;DHT22;28110;47.080;9.476;2023-04-16T02:16:55;6.20;99.90
42479;DHT22;28110;47.080;9.476;2023-04-16T02:19:20;6.20;99.90
42479;DHT22;28110;47.080;9.476;2023-04-16T02:21:46;6.10;99.90
42479;DHT22;28110;47.080;9.476;2023-04-16T02:24:12;6.20;99.90
42479;DHT22;28110;47.080;9.476;2023-04-16T02:26:38;6.10;99.90
42479;DHT22;28110;47.080;9.476;2023-04-16T02:29:04;6.10;99.90
42479;DHT22;28110;47.080;9.476;2023-04-16T02:31:29;6.10;99.90
42479;DHT22;28110;47.080;9.476;2023-04-16T02:33:56;6.10;99.90
42479;DHT22;28110;47.080;9.476;2023-04-16T02:36:22;6.10;99.90
42479;DHT22;28110;47.080;9.476;2023-04-16T02:38:47;6.10;99.90
42479;DHT22;28110;47.080;9.476;2023-04-16T02:41:13;6.00;99.90
42479;DHT22;28110;47.080;9.476;2023-04-16T02:43:38;6.00;99.90
42479;DHT22;28110;47.080;9.476;2023-04-16T02:46:04;6.00;99.90
42479;DHT22;28110;47.080;9.476;2023-04-16T02:48:29;6.00;99.90
42479;DHT22;28110;47.080;9.476;2023-04-16T02:50:55;6.00;99.90
42479;DHT22;28110;47.080;9.476;2023-04-16T02:53:20;6.00;99.90
42479;DHT22;28110;47.080;9.476;2023-04-16T02:55:49;6.00;99.90
42479;DHT22;28110;47.080;9.476;2023-04-16T02:58:17;6.00;99.90
42479;DHT22;28110;47.080;9.476;2023-04-16T03:00:42;6.00;99.90
42479;DHT22;28110;47.080;9.476;2023-04-16T03:03:08;6.00;99.90
42479;DHT22;28110;47.080;9.476;2023-04-16T03:05:33;5.90;99.90
42479;DHT22;28110;47.080;9.476;2023-04-16T03:07:59;5.90;99.90
42479;DHT22;28110;47.080;9.476;2023-04-16T03:10:24;6.00;99.90
42479;DHT22;28110;47.080;9.476;2023-04-16T03:12:50;6.00;99.90
42479;DHT22;28110;47.080;9.476;2023-04-16T03:15:16;6.00;99.90
42479;DHT22;28110;47.080;9.476;2023-04-16T03:17:42;5.90;99.90
42479;DHT22;28110;47.080;9.476;2023-04-16T03:20:08;5.90;99.90
42479;DHT22;28110;47.080;9.476;2023-04-16T03:22:34;5.90;99.90
42479;DHT22;28110;47.080;9.476;2023-04-16T03:25:00;5.90;99.90
42479;DHT22;28110;47.080;9.476;2023-04-16T03:27:25;5.90;99.90
42479;DHT22;28110;47.080;9.476;2023-04-16T03:29:51;5.90;99.90
42479;DHT22;28110;47.080;9.476;2023-04-16T03:32:16;5.90;99.90
42479;DHT22;28110;47.080;9.476;2023-04-16T03:34:42;5.90;99.90
42479;DHT22;28110;47.080;9.476;2023-04-16T03:37:07;5.80;99.90
42479;DHT22;28110;47.080;9.476;2023-04-16T03:39:36;5.80;99.90
42479;DHT22;28110;47.080;9.476;2023-04-16T03:42:02;5.90;99.90
42479;DHT22;28110;47.080;9.476;2023-04-16T03:44:28;5.90;99.90
42479;DHT22;28110;47.080;9.476;2023-04-16T03:46:54;5.90;99.90
42479;DHT22;28110;47.080;9.476;2023-04-16T03:49:19;5.90;99.90
42479;DHT22;28110;47.080;9.476;2023-04-16T03:51:45;5.80;99.90
42479;DHT22;28110;47.080;9.476;2023-04-16T03:54:11;5.80;99.90
42479;DHT22;28110;47.080;9.476;2023-04-16T03:56:36;5.90;99.90
42479;DHT22;28110;47.080;9.476;2023-04-16T03:59:04;5.80;99.90
42479;DHT22;28110;47.080;9.476;2023-04-16T04:01:29;5.90;99.90
42479;DHT22;28110;47.080;9.476;2023-04-16T04:03:55;5.90;99.90
42479;DHT22;28110;47.080;9.476;2023-04-16T04:06:21;5.90;99.90
42479;DHT22;28110;47.080;9.476;2023-04-16T04:08:46;5.90;99.90
42479;DHT22;28110;47.080;9.476;2023-04-16T04:11:12;5.80;99.90
42479;DHT22;28110;47.080;9.476;2023-04-16T04:13:37;5.90;99.90
42479;DHT22;28110;47.080;9.476;2023-04-16T04:16:03;5.80;99.90
42479;DHT22;28110;47.080;9.476;2023-04-16T04:18:29;5.80;99.90
42479;DHT22;28110;47.080;9.476;2023-04-16T04:20:55;5.70;99.90
42479;DHT22;28110;47.080;9.476;2023-04-16T04:23:20;5.70;99.90
42479;DHT22;28110;47.080;9.476;2023-04-16T04:25:46;5.60;99.90
42479;DHT22;28110;47.080;9.476;2023-04-16T04:28:11;5.60;99.90
42479;DHT22;28110;47.080;9.476;2023-04-16T04:30:37;5.60;99.90
42479;DHT22;28110;47.080;9.476;2023-04-16T04:33:03;5.60;99.90
42479;DHT22;28110;47.080;9.476;2023-04-16T04:35:29;5.60;99.90
42479;DHT22;28110;47.080;9.476;2023-04-16T04:37:54;5.50;99.90
42479;DHT22;28110;47.080;9.476;2023-04-16T04:40:20;5.50;99.90
42479;DHT22;28110;47.080;9.476;2023-04-16T04:42:46;5.50;99.90
42479;DHT22;28110;47.080;9.476;2023-04-16T04:45:11;5.50;99.90
42479;DHT22;28110;47.080;9.476;2023-04-16T04:47:37;5.50;99.90
42479;DHT22;28110;47.080;9.476;2023-04-16T04:50:02;5.50;99.90
42479;DHT22;28110;47.080;9.476;2023-04-16T04:52:28;5.50;99.90
42479;DHT22;28110;47.080;9.476;2023-04-16T04:54:54;5.60;99.90
42479;DHT22;28110;47.080;9.476;2023-04-16T04:57:19;5.60;99.90
42479;DHT22;28110;47.080;9.476;2023-04-16T04:59:45;5.60;99.90
42479;DHT22;28110;47.080;9.476;2023-04-16T05:02:10;5.60;99.90
42479;DHT22;28110;47.080;9.476;2023-04-16T05:04:36;5.70;99.90
42479;DHT22;28110;47.080;9.476;2023-04-16T05:07:01;5.60;99.90
42479;DHT22;28110;47.080;9.476;2023-04-16T05:09:27;5.60;99.90
42479;DHT22;28110;47.080;9.476;2023-04-16T05:11:53;5.50;99.90
42479;DHT22;28110;47.080;9.476;2023-04-16T05:14:18;5.50;99.90
42479;DHT22;28110;47.080;9.476;2023-04-16T05:16:44;5.50;99.90
42479;DHT22;28110;47.080;9.476;2023-04-16T05:19:09;5.40;99.90
42479;DHT22;28110;47.080;9.476;2023-04-16T05:21:35;5.40;99.90
42479;DHT22;28110;47.080;9.476;2023-04-16T05:24:00;5.40;99.90
42479;DHT22;28110;47.080;9.476;2023-04-16T05:26:26;5.50;99.90
42479;DHT22;28110;47.080;9.476;2023-04-16T05:28:51;5.50;99.90
42479;DHT22;28110;47.080;9.476;2023-04-16T05:31:17;5.50;99.90
42479;DHT22;28110;47.080;9.476;2023-04-16T05:33:43;5.50;99.90
42479;DHT22;28110;47.080;9.476;2023-04-16T05:36:08;5.50;99.90
42479;DHT22;28110;47.080;9.476;2023-04-16T05:38:34;5.60;99.90
42479;DHT22;28110;47.080;9.476;2023-04-16T05:40:59;5.60;99.90
42479;DHT22;28110;47.080;9.476;2023-04-16T05:43:25;5.60;99.90
42479;DHT22;28110;47.080;9.476;2023-04-16T05:45:50;5.60;99.90
42479;DHT22;28110;47.080;9.476;2023-04-16T05:48:16;5.50;99.90
42479;DHT22;28110;47.080;9.476;2023-04-16T05:50:41;5.60;99.90
42479;DHT22;28110;47.080;9.476;2023-04-16T05:53:08;5.50;99.90
42479;DHT22;28110;47.080;9.476;2023-04-16T05:55:34;5.50;99.90
42479;DHT22;28110;47.080;9.476;2023-04-16T05:58:03;5.50;99.90
42479;DHT22;28110;47.080;9.476;2023-04-16T06:00:30;5.50;99.90
42479;DHT22;28110;47.080;9.476;2023-04-16T06:02:56;5.50;99.90
42479;DHT22;28110;47.080;9.476;2023-04-16T06:05:21;5.50;99.90
42479;DHT22;28110;47.080;9.476;2023-04-16T06:07:47;5.60;99.90
42479;DHT22;28110;47.080;9.476;2023-04-16T06:10:12;5.60;99.90
42479;DHT22;28110;47.080;9.476;2023-04-16T06:12:38;5.60;99.90
42479;DHT22;28110;47.080;9.476;2023-04-16T06:15:04;5.60;99.90
42479;DHT22;28110;47.080;9.476;2023-04-16T06:17:30;5.60;99.90
42479;DHT22;28110;47.080;9.476;2023-04-16T06:19:55;5.60;99.90
42479;DHT22;28110;47.080;9.476;2023-04-16T06:22:21;5.60;99.90
42479;DHT22;28110;47.080;9.476;2023-04-16T06:24:46;5.60;99.90
42479;DHT22;28110;47.080;9.476;2023-04-16T06:27:12;5.60;99.90
42479;DHT22;28110;47.080;9.476;2023-04-16T06:29:38;5.60;99.90
42479;DHT22;28110;47.080;9.476;2023-04-16T06:32:03;5.70;99.90
42479;DHT22;28110;47.080;9.476;2023-04-16T06:34:29;5.70;99.90
42479;DHT22;28110;47.080;9.476;2023-04-16T06:36:55;5.70;99.90
42479;DHT22;28110;47.080;9.476;2023-04-16T06:39:21;5.70;99.90
42479;DHT22;28110;47.080;9.476;2023-04-16T06:41:47;5.70;99.90
42479;DHT22;28110;47.080;9.476;2023-04-16T06:44:13;5.70;99.90
42479;DHT22;28110;47.080;9.476;2023-04-16T06:46:39;5.60;99.90
42479;DHT22;28110;47.080;9.476;2023-04-16T06:49:05;5.60;99.90
42479;DHT22;28110;47.080;9.476;2023-04-16T06:51:31;5.60;99.90
42479;DHT22;28110;47.080;9.476;2023-04-16T06:53:56;5.60;99.90
42479;DHT22;28110;47.080;9.476;2023-04-16T06:56:22;5.60;99.90
42479;DHT22;28110;47.080;9.476;2023-04-16T06:58:47;5.70;99.90
42479;DHT22;28110;47.080;9.476;2023-04-16T07:01:13;5.70;99.90
42479;DHT22;28110;47.080;9.476;2023-04-16T07:03:38;5.70;99.90
42479;DHT22;28110;47.080;9.476;2023-04-16T07:06:04;5.70;99.90
42479;DHT22;28110;47.080;9.476;2023-04-16T07:08:30;5.70;99.90
42479;DHT22;28110;47.080;9.476;2023-04-16T07:10:55;5.80;99.90
42479;DHT22;28110;47.080;9.476;2023-04-16T07:13:21;5.70;99.90
42479;DHT22;28110;47.080;9.476;2023-04-16T07:15:47;5.80;99.90
42479;DHT22;28110;47.080;9.476;2023-04-16T07:18:12;5.80;99.90
42479;DHT22;28110;47.080;9.476;2023-04-16T07:20:38;5.70;99.90
42479;DHT22;28110;47.080;9.476;2023-04-16T07:23:03;5.70;99.90
42479;DHT22;28110;47.080;9.476;2023-04-16T07:25:29;5.70;99.90
42479;DHT22;28110;47.080;9.476;2023-04-16T07:27:54;5.70;99.90
42479;DHT22;28110;47.080;9.476;2023-04-16T07:30:20;5.70;99.90
42479;DHT22;28110;47.080;9.476;2023-04-16T07:32:45;5.60;99.90
42479;DHT22;28110;47.080;9.476;2023-04-16T07:35:11;5.60;99.90
42479;DHT22;28110;47.080;9.476;2023-04-16T07:37:36;5.70;99.90
42479;DHT22;28110;47.080;9.476;2023-04-16T07:40:02;5.70;99.90
42479;DHT22;28110;47.080;9.476;2023-04-16T07:42:28;5.70;99.90
42479;DHT22;28110;47.080;9.476;2023-04-16T07:44:54;5.80;99.90
42479;DHT22;28110;47.080;9.476;2023-04-16T07:47:19;5.80;99.90
42479;DHT22;28110;47.080;9.476;2023-04-16T07:49:47;5.90;99.90
42479;DHT22;28110;47.080;9.476;2023-04-16T07:52:13;5.80;99.90
42479;DHT22;28110;47.080;9.476;2023-04-16T07:54:39;5.90;99.90
42479;DHT22;28110;47.080;9.476;2023-04-16T07:57:05;5.90;99.90
42479;DHT22;28110;47.080;9.476;2023-04-16T07:59:30;5.90;99.90
42479;DHT22;28110;47.080;9.476;2023-04-16T08:01:56;6.00;99.90
42479;DHT22;28110;47.080;9.476;2023-04-16T08:04:21;6.10;99.90
42479;DHT22;28110;47.080;9.476;2023-04-16T08:06:49;6.10;99.90
42479;DHT22;28110;47.080;9.476;2023-04-16T08:09:15;6.20;99.90
42479;DHT22;28110;47.080;9.476;2023-04-16T08:11:40;6.20;99.90
42479;DHT22;28110;47.080;9.476;2023-04-16T08:14:06;6.20;99.90
42479;DHT22;28110;47.080;9.476;2023-04-16T08:16:32;6.20;99.90
42479;DHT22;28110;47.080;9.476;2023-04-16T08:18:57;6.20;99.90
42479;DHT22;28110;47.080;9.476;2023-04-16T08:21:25;6.20;99.90
42479;DHT22;28110;47.080;9.476;2023-04-16T08:23:52;6.20;99.90
42479;DHT22;28110;47.080;9.476;2023-04-16T08:26:18;6.20;99.90
42479;DHT22;28110;47.080;9.476;2023-04-16T08:28:44;6.20;99.90
42479;DHT22;28110;47.080;9.476;2023-04-16T08:31:10;6.20;99.90
42479;DHT22;28110;47.080;9.476;2023-04-16T08:33:36;6.10;99.90
42479;DHT22;28110;47.080;9.476;2023-04-16T08:36:01;6.10;99.90
42479;DHT22;28110;47.080;9.476;2023-04-16T08:38:27;6.00;99.90
42479;DHT22;28110;47.080;9.476;2023-04-16T08:40:54;6.00;99.90
42479;DHT22;28110;47.080;9.476;2023-04-16T08:43:22;6.00;99.90
42479;DHT22;28110;47.080;9.476;2023-04-16T08:45:50;6.00;99.90
42479;DHT22;28110;47.080;9.476;2023-04-16T08:48:19;6.00;99.90
42479;DHT22;28110;47.080;9.476;2023-04-16T08:50:48;6.00;99.90
42479;DHT22;28110;47.080;9.476;2023-04-16T08:53:17;6.00;99.90
42479;DHT22;28110;47.080;9.476;2023-04-16T08:55:48;6.10;99.90
42479;DHT22;28110;47.080;9.476;2023-04-16T08:58:18;6.10;99.90
42479;DHT22;28110;47.080;9.476;2023-04-16T09:00:45;6.10;99.90
42479;DHT22;28110;47.080;9.476;2023-04-16T09:03:11;6.10;99.90
42479;DHT22;28110;47.080;9.476;2023-04-16T09:05:38;6.10;99.90
42479;DHT22;28110;47.080;9.476;2023-04-16T09:08:07;6.10;99.90
42479;DHT22;28110;47.080;9.476;2023-04-16T09:10:33;6.10;99.90
42479;DHT22;28110;47.080;9.476;2023-04-16T09:12:58;6.10;99.90
42479;DHT22;28110;47.080;9.476;2023-04-16T09:15:25;6.20;99.90
42479;DHT22;28110;47.080;9.476;2023-04-16T09:17:51;6.20;99.90
42479;DHT22;28110;47.080;9.476;2023-04-16T09:20:17;6.30;99.90
42479;DHT22;28110;47.080;9.476;2023-04-16T09:22:43;6.40;99.90
42479;DHT22;28110;47.080;9.476;2023-04-16T09:25:09;6.50;99.90
42479;DHT22;28110;47.080;9.476;2023-04-16T09:27:35;6.60;99.90
42479;DHT22;28110;47.080;9.476;2023-04-16T09:32:46;6.80;99.90
42479;DHT22;28110;47.080;9.476;2023-04-16T09:35:11;6.80;99.90
42479;DHT22;28110;47.080;9.476;2023-04-16T09:37:38;6.80;99.90
42479;DHT22;28110;47.080;9.476;2023-04-16T09:40:04;7.00;99.90
42479;DHT22;28110;47.080;9.476;2023-04-16T09:42:32;7.00;99.90
42479;DHT22;28110;47.080;9.476;2023-04-16T09:44:58;7.00;99.90
42479;DHT22;28110;47.080;9.476;2023-04-16T09:47:25;7.10;99.90
42479;DHT22;28110;47.080;9.476;2023-04-16T09:50:02;7.20;99.90
42479;DHT22;28110;47.080;9.476;2023-04-16T09:52:28;7.20;99.90
42479;DHT22;28110;47.080;9.476;2023-04-16T09:54:53;7.20;99.90
42479;DHT22;28110;47.080;9.476;2023-04-16T09:57:23;7.10;99.90
42479;DHT22;28110;47.080;9.476;2023-04-16T10:00:02;7.10;99.90
42479;DHT22;28110;47.080;9.476;2023-04-16T10:02:28;6.90;99.90
42479;DHT22;28110;47.080;9.476;2023-04-16T10:04:54;6.90;99.90
42479;DHT22;28110;47.080;9.476;2023-04-16T10:07:20;6.90;99.90
42479;DHT22;28110;47.080;9.476;2023-04-16T10:09:47;7.00;99.90
42479;DHT22;28110;47.080;9.476;2023-04-16T10:12:13;7.10;99.90
42479;DHT22;28110;47.080;9.476;2023-04-16T10:14:39;7.10;99.90
42479;DHT22;28110;47.080;9.476;2023-04-16T10:17:06;7.20;99.90
42479;DHT22;28110;47.080;9.476;2023-04-16T10:19:32;7.30;99.90
42479;DHT22;28110;47.080;9.476;2023-04-16T10:21:58;7.20;99.90
42479;DHT22;28110;47.080;9.476;2023-04-16T10:24:24;7.20;99.90
42479;DHT22;28110;47.080;9.476;2023-04-16T10:26:51;7.20;99.90
42479;DHT22;28110;47.080;9.476;2023-04-16T10:29:18;7.20;99.90
42479;DHT22;28110;47.080;9.476;2023-04-16T10:31:45;7.30;99.90
42479;DHT22;28110;47.080;9.476;2023-04-16T10:34:12;7.40;99.90
42479;DHT22;28110;47.080;9.476;2023-04-16T10:36:38;7.40;99.90
42479;DHT22;28110;47.080;9.476;2023-04-16T10:39:09;7.40;99.90
42479;DHT22;28110;47.080;9.476;2023-04-16T10:41:36;7.40;99.90
42479;DHT22;28110;47.080;9.476;2023-04-16T10:44:06;7.50;99.90
42479;DHT22;28110;47.080;9.476;2023-04-16T10:46:37;7.50;99.90
42479;DHT22;28110;47.080;9.476;2023-04-16T10:49:23;7.50;99.90
42479;DHT22;28110;47.080;9.476;2023-04-16T10:54:24;7.60;99.90
42479;DHT22;28110;47.080;9.476;2023-04-16T10:56:56;7.60;99.90
42479;DHT22;28110;47.080;9.476;2023-04-16T10:59:23;7.70;99.90
42479;DHT22;28110;47.080;9.476;2023-04-16T11:01:54;7.70;99.90
42479;DHT22;28110;47.080;9.476;2023-04-16T11:12:26;7.70;99.90
42479;DHT22;28110;47.080;9.476;2023-04-16T11:15:06;7.70;99.90
42479;DHT22;28110;47.080;9.476;2023-04-16T11:17:43;7.70;99.90
42479;DHT22;28110;47.080;9.476;2023-04-16T11:20:22;7.70;99.90
42479;DHT22;28110;47.080;9.476;2023-04-16T11:22:49;7.70;99.90
42479;DHT22;28110;47.080;9.476;2023-04-16T11:25:22;7.60;99.90
42479;DHT22;28110;47.080;9.476;2023-04-16T11:27:49;7.70;99.90
42479;DHT22;28110;47.080;9.476;2023-04-16T11:30:15;7.70;99.90
42479;DHT22;28110;47.080;9.476;2023-04-16T11:32:43;7.80;99.90
42479;DHT22;28110;47.080;9.476;2023-04-16T11:35:18;7.80;99.90
42479;DHT22;28110;47.080;9.476;2023-04-16T11:37:44;7.80;99.90
42479;DHT22;28110;47.080;9.476;2023-04-16T11:40:10;7.80;99.90
42479;DHT22;28110;47.080;9.476;2023-04-16T11:42:40;7.80;99.90
42479;DHT22;28110;47.080;9.476;2023-04-16T11:45:07;7.80;99.90
42479;DHT22;28110;47.080;9.476;2023-04-16T11:47:48;7.90;99.90
42479;DHT22;28110;47.080;9.476;2023-04-16T11:50:24;8.00;99.90
42479;DHT22;28110;47.080;9.476;2023-04-16T11:52:51;8.00;99.90
42479;DHT22;28110;47.080;9.476;2023-04-16T11:55:17;8.10;99.90
42479;DHT22;28110;47.080;9.476;2023-04-16T11:57:43;8.10;99.90
42479;DHT22;28110;47.080;9.476;2023-04-16T12:00:10;8.20;99.90
42479;DHT22;28110;47.080;9.476;2023-04-16T12:02:58;8.20;99.90
42479;DHT22;28110;47.080;9.476;2023-04-16T12:05:37;8.10;99.90
42479;DHT22;28110;47.080;9.476;2023-04-16T12:08:08;8.20;99.90
42479;DHT22;28110;47.080;9.476;2023-04-16T12:10:36;8.20;99.90
42479;DHT22;28110;47.080;9.476;2023-04-16T12:13:15;8.30;99.90
42479;DHT22;28110;47.080;9.476;2023-04-16T12:15:51;8.40;99.90
42479;DHT22;28110;47.080;9.476;2023-04-16T12:18:18;8.30;99.90
42479;DHT22;28110;47.080;9.476;2023-04-16T12:20:45;8.30;99.90
42479;DHT22;28110;47.080;9.476;2023-04-16T12:23:32;8.30;99.90
42479;DHT22;28110;47.080;9.476;2023-04-16T12:25:58;8.40;99.90
42479;DHT22;28110;47.080;9.476;2023-04-16T12:28:35;8.40;99.90
42479;DHT22;28110;47.080;9.476;2023-04-16T12:31:03;8.30;99.90
42479;DHT22;28110;47.080;9.476;2023-04-16T12:33:29;8.30;99.90
42479;DHT22;28110;47.080;9.476;2023-04-16T12:35:55;8.30;99.90
42479;DHT22;28110;47.080;9.476;2023-04-16T12:38:20;8.40;99.90
42479;DHT22;28110;47.080;9.476;2023-04-16T12:40:46;8.30;99.90
42479;DHT22;28110;47.080;9.476;2023-04-16T12:43:12;8.40;99.90
42479;DHT22;28110;47.080;9.476;2023-04-16T12:45:38;8.40;99.90
42479;DHT22;28110;47.080;9.476;2023-04-16T12:48:05;8.40;99.90
42479;DHT22;28110;47.080;9.476;2023-04-16T12:50:30;8.40;99.90
42479;DHT22;28110;47.080;9.476;2023-04-16T12:52:57;8.50;99.90
42479;DHT22;28110;47.080;9.476;2023-04-16T12:55:22;8.50;99.90
42479;DHT22;28110;47.080;9.476;2023-04-16T12:57:49;8.50;99.90
42479;DHT22;28110;47.080;9.476;2023-04-16T13:00:18;8.60;99.90
42479;DHT22;28110;47.080;9.476;2023-04-16T13:02:44;8.60;99.90
42479;DHT22;28110;47.080;9.476;2023-04-16T13:05:09;8.60;99.90
42479;DHT22;28110;47.080;9.476;2023-04-16T13:07:35;8.60;99.90
42479;DHT22;28110;47.080;9.476;2023-04-16T13:10:00;8.70;99.90
42479;DHT22;28110;47.080;9.476;2023-04-16T13:12:26;8.60;99.90
42479;DHT22;28110;47.080;9.476;2023-04-16T13:14:53;8.60;99.90
42479;DHT22;28110;47.080;9.476;2023-04-16T13:17:19;8.60;99.90
42479;DHT22;28110;47.080;9.476;2023-04-16T13:19:45;8.60;99.90
42479;DHT22;28110;47.080;9.476;2023-04-16T13:22:10;8.50;99.90
42479;DHT22;28110;47.080;9.476;2023-04-16T13:24:36;8.50;99.90
42479;DHT22;28110;47.080;9.476;2023-04-16T13:27:02;8.50;99.90
42479;DHT22;28110;47.080;9.476;2023-04-16T13:29:29;8.50;99.90
42479;DHT22;28110;47.080;9.476;2023-04-16T13:31:54;8.50;99.90
42479;DHT22;28110;47.080;9.476;2023-04-16T13:34:20;8.40;99.90
42479;DHT22;28110;47.080;9.476;2023-04-16T13:36:46;8.50;99.90
42479;DHT22;28110;47.080;9.476;2023-04-16T13:39:13;8.40;99.90
42479;DHT22;28110;47.080;9.476;2023-04-16T13:41:39;8.50;99.90
42479;DHT22;28110;47.080;9.476;2023-04-16T13:44:04;8.50;99.90
42479;DHT22;28110;47.080;9.476;2023-04-16T13:46:30;8.60;99.90
42479;DHT22;28110;47.080;9.476;2023-04-16T13:48:56;8.60;99.90
42479;DHT22;28110;47.080;9.476;2023-04-16T13:51:22;8.70;99.90
42479;DHT22;28110;47.080;9.476;2023-04-16T13:53:47;8.70;99.90
42479;DHT22;28110;47.080;9.476;2023-04-16T13:56:13;8.60;99.90
42479;DHT22;28110;47.080;9.476;2023-04-16T13:58:39;8.60;99.90
42479;DHT22;28110;47.080;9.476;2023-04-16T14:01:05;8.60;99.90
42479;DHT22;28110;47.080;9.476;2023-04-16T14:03:31;8.60;99.90
42479;DHT22;28110;47.080;9.476;2023-04-16T14:06:03;8.50;99.90
42479;DHT22;28110;47.080;9.476;2023-04-16T14:08:29;8.50;99.90
42479;DHT22;28110;47.080;9.476;2023-04-16T14:10:55;8.50;99.90
42479;DHT22;28110;47.080;9.476;2023-04-16T14:13:21;8.50;99.90
42479;DHT22;28110;47.080;9.476;2023-04-16T14:15:46;8.60;99.90
42479;DHT22;28110;47.080;9.476;2023-04-16T14:18:12;8.50;99.90
42479;DHT22;28110;47.080;9.476;2023-04-16T14:20:37;8.60;99.90
42479;DHT22;28110;47.080;9.476;2023-04-16T14:23:04;8.60;99.90
42479;DHT22;28110;47.080;9.476;2023-04-16T14:25:30;8.70;99.90
42479;DHT22;28110;47.080;9.476;2023-04-16T14:27:56;8.70;99.90
42479;DHT22;28110;47.080;9.476;2023-04-16T14:30:23;8.70;99.90
42479;DHT22;28110;47.080;9.476;2023-04-16T14:32:48;8.70;99.90
42479;DHT22;28110;47.080;9.476;2023-04-16T14:35:14;8.70;99.90
42479;DHT22;28110;47.080;9.476;2023-04-16T14:37:40;8.60;99.90
42479;DHT22;28110;47.080;9.476;2023-04-16T14:40:06;8.60;99.90
42479;DHT22;28110;47.080;9.476;2023-04-16T14:42:33;8.70;99.90
42479;DHT22;28110;47.080;9.476;2023-04-16T14:45:00;8.70;99.90
42479;DHT22;28110;47.080;9.476;2023-04-16T14:47:26;8.60;99.90
42479;DHT22;28110;47.080;9.476;2023-04-16T14:49:52;8.60;99.90
42479;DHT22;28110;47.080;9.476;2023-04-16T14:52:18;8.60;99.90
42479;DHT22;28110;47.080;9.476;2023-04-16T14:54:44;8.60;99.90
42479;DHT22;28110;47.080;9.476;2023-04-16T14:57:09;8.50;99.90
42479;DHT22;28110;47.080;9.476;2023-04-16T14:59:35;8.50;99.90
42479;DHT22;28110;47.080;9.476;2023-04-16T15:02:01;8.50;99.90
42479;DHT22;28110;47.080;9.476;2023-04-16T15:04:26;8.40;99.90
42479;DHT22;28110;47.080;9.476;2023-04-16T15:06:52;8.40;99.90
42479;DHT22;28110;47.080;9.476;2023-04-16T15:09:18;8.40;99.90
42479;DHT22;28110;47.080;9.476;2023-04-16T15:11:43;8.30;99.90
42479;DHT22;28110;47.080;9.476;2023-04-16T15:14:09;8.40;99.90
42479;DHT22;28110;47.080;9.476;2023-04-16T15:16:34;8.30;99.90
42479;DHT22;28110;47.080;9.476;2023-04-16T15:19:00;8.30;99.90
42479;DHT22;28110;47.080;9.476;2023-04-16T15:21:25;8.40;99.90
42479;DHT22;28110;47.080;9.476;2023-04-16T15:23:52;8.40;99.90
42479;DHT22;28110;47.080;9.476;2023-04-16T15:26:18;8.40;99.90
42479;DHT22;28110;47.080;9.476;2023-04-16T15:28:43;8.40;99.90
42479;DHT22;28110;47.080;9.476;2023-04-16T15:31:09;8.40;99.90
42479;DHT22;28110;47.080;9.476;2023-04-16T15:33:34;8.40;99.90
42479;DHT22;28110;47.080;9.476;2023-04-16T15:36:00;8.40;99.90
42479;DHT22;28110;47.080;9.476;2023-04-16T15:38:25;8.40;99.90
42479;DHT22;28110;47.080;9.476;2023-04-16T15:40:52;8.40;99.90
42479;DHT22;28110;47.080;9.476;2023-04-16T15:43:18;8.40;99.90
42479;DHT22;28110;47.080;9.476;2023-04-16T15:45:43;8.40;99.90
42479;DHT22;28110;47.080;9.476;2023-04-16T15:48:09;8.40;99.90
42479;DHT22;28110;47.080;9.476;2023-04-16T15:50:35;8.40;99.90
42479;DHT22;28110;47.080;9.476;2023-04-16T15:53:01;8.50;99.90